Terminal Aerodrome Forecast
Issued by NWS Shreveport, LA

Home | Current Version | Previous Version | Text Only | Print | Product List | Glossary On
Versions: 1 2 3 4 5 6 7 8 9 10 11 12 13 14 15 16 17 18 19 20
000
FTUS44 KSHV 200500
TAFLFK
TAF
KLFK 200525Z 2006/2106 VRB03KT P6SM FEW150 SCT250
      TEMPO 2011/2013 5SM BR SCT250
     FM201500 VRB04KT P6SM SCT250
     FM210100 04004KT P6SM FEW250=

USA.gov is the U.S. government's official web portal to all federal, state and local government web resources and services.